London, United Kingdom

10:00 AM BST on October 20, 2014 (GMT +0100)
Heathrow | Change Station
CLOSE
Current Station
Airport
Location: London,
Elevation: 79 ft
Nearby Weather Stations

Elev 79 ft 51.48 °N, 0.46 °W | Updated 10 minutes ago

Scattered Clouds
Scattered Clouds
57 °F
Feels Like 57 °F
N
10
Wind Variable Wind from SW

Today
High -- | Low -- °F
--% Chance of Precip.
Yesterday
High -- | Low -- °F
Precip. -- in
7:33 AM 5:58 PM
Waning Crescent, 12% visible
Pressure 30.04 in
Visibility 6.2 miles
Clouds Few 2000 ft
Scattered Clouds 4600 ft
Dew Point 52 °F
Humidity 82%
Rainfall 0.00 in
Snow Depth Not available.
UV 1 out of 12
Pollen Not available.
Air Quality Not available.
Flu Activity Not available.
METAR EGLL 200850Z 22009KT 190V260 9999 FEW020 SCT046 14/11 Q1017 NOSIG

More Conditions Fewer Conditions

Pressure 30.04 in
Visibility 6.2 miles
Clouds Few 2000 ft
Scattered Clouds 4600 ft
Dew Point 52 °F
Humidity 82%
Rainfall 0.00 in
Snow Depth Not available.
UV 1 out of 12
Pollen Not available.
Air Quality Not available.
Flu Activity Not available.
METAR EGLL 200850Z 22009KT 190V260 9999 FEW020 SCT046 14/11 Q1017 NOSIG

More Conditions Fewer Conditions

10-Day Weather Forecast

Almanac

Astronomy

Oct. 20, 2014 Rise Set
Actual Time 7:33 AM BST 5:58 PM BST
Civil Twilight 6:59 AM BST 6:32 PM BST
Nautical Twilight 6:21 AM BST 7:11 PM BST
Astronomical Twilight 5:42 AM BST 7:49 PM BST
Moon 3:45 AM BST 4:32 PM BST
Length of Visible Light 11h 32m
Length of Day
10h 24m
Tomorrow will be 3m 46s shorter.
Waning Crescent, 12% of the Moon is Illuminated
Today
Waning Crescent
Oct 23
New
Oct 30
First Quarter
Nov 6
Full
Nov 14
Last Quarter

Yesterday's Extremes

Country Highs Country Lows

Community

WunderPhotos

Upload Photos

1,763,316 photos uploaded!

Nearby

Snow Depth

Not available.

Earthquake Activity

City Distance Mag. Time & Date
No recent earthquake activity has been reported nearby.
Minimum magnitude displayed is 2.5.

Coastal Water Temperatures

Place Temperature
No Stations Reporting

Nearby Weather Stations